createdAt,value
2022-11-16T00:02:25.842Z,8.64
2022-11-16T00:04:54.659Z,8.66
2022-11-16T00:07:21.219Z,8.67
2022-11-16T00:09:47.902Z,8.68
2022-11-16T00:12:17.411Z,8.64
2022-11-16T00:14:46.222Z,8.65
2022-11-16T00:17:12.717Z,8.62
2022-11-16T00:19:39.198Z,8.64
2022-11-16T00:22:05.699Z,8.64
2022-11-16T00:24:34.681Z,8.67
2022-11-16T00:27:03.756Z,8.68
2022-11-16T00:29:30.240Z,8.65
2022-11-16T00:31:56.825Z,8.70
2022-11-16T00:34:26.217Z,8.71
2022-11-16T00:36:52.858Z,8.72
2022-11-16T00:39:19.956Z,8.72
2022-11-16T00:41:47.825Z,8.70
2022-11-16T00:44:17.923Z,8.73
2022-11-16T00:46:44.845Z,8.74
2022-11-16T00:49:13.746Z,8.73
2022-11-16T00:51:42.564Z,8.70
2022-11-16T00:54:09.622Z,8.70
2022-11-16T00:56:37.139Z,8.72
2022-11-16T00:59:03.798Z,8.72
2022-11-16T01:01:32.535Z,8.72
2022-11-16T01:03:59.226Z,8.72
2022-11-16T01:06:27.885Z,8.74
2022-11-16T01:08:56.829Z,8.74
2022-11-16T01:11:42.751Z,8.72
2022-11-16T01:14:09.507Z,8.71
2022-11-16T01:16:36.421Z,8.71
2022-11-16T01:19:08.407Z,8.71
2022-11-16T01:21:38.467Z,8.70
2022-11-16T01:24:05.385Z,8.71
2022-11-16T01:26:34.154Z,8.71
2022-11-16T01:29:00.705Z,8.70
2022-11-16T01:31:27.278Z,8.68
2022-11-16T01:33:57.020Z,8.70
2022-11-16T01:36:23.588Z,8.70
2022-11-16T01:38:50.715Z,8.71
2022-11-16T01:41:23.299Z,8.71
2022-11-16T01:44:17.598Z,8.73
2022-11-16T01:46:44.135Z,8.71
2022-11-16T01:49:20.256Z,8.72
2022-11-16T01:51:52.870Z,8.73
2022-11-16T01:54:19.437Z,8.74
2022-11-16T01:56:48.864Z,8.73
2022-11-16T01:59:20.141Z,8.73
2022-11-16T02:01:48.939Z,8.73
2022-11-16T02:04:15.520Z,8.72
2022-11-16T02:07:15.906Z,8.73
2022-11-16T02:09:54.318Z,8.75
2022-11-16T02:12:36.142Z,8.76
2022-11-16T02:15:17.250Z,8.78
2022-11-16T02:18:04.801Z,8.78
2022-11-16T02:20:33.569Z,8.79
2022-11-16T02:23:02.954Z,8.81
2022-11-16T02:25:32.199Z,8.77
2022-11-16T02:28:20.433Z,8.81
2022-11-16T02:30:52.727Z,8.82
2022-11-16T02:33:23.004Z,8.82
2022-11-16T02:35:56.390Z,8.80
2022-11-16T02:38:34.217Z,8.81
2022-11-16T02:41:10.164Z,8.76
2022-11-16T02:43:50.858Z,8.74
2022-11-16T02:46:23.997Z,8.73
2022-11-16T02:48:54.347Z,8.71
2022-11-16T02:51:22.293Z,8.71
2022-11-16T02:54:01.404Z,8.68
2022-11-16T02:56:30.703Z,8.69
2022-11-16T02:58:59.366Z,8.69
2022-11-16T03:01:35.137Z,8.71
2022-11-16T03:04:10.902Z,8.73
2022-11-16T03:06:41.606Z,8.71
2022-11-16T03:09:11.221Z,8.73
2022-11-16T03:12:00.651Z,8.72
2022-11-16T03:14:44.170Z,8.71
2022-11-16T03:17:24.056Z,8.72
2022-11-16T03:20:11.915Z,8.69
2022-11-16T03:22:44.090Z,8.70
2022-11-16T03:25:16.366Z,8.70
2022-11-16T03:27:42.793Z,8.69
2022-11-16T03:30:09.313Z,8.70
2022-11-16T03:32:51.158Z,8.69
2022-11-16T03:35:49.174Z,8.72
2022-11-16T03:38:20.304Z,8.68
2022-11-16T03:40:49.514Z,8.69
2022-11-16T03:43:21.838Z,8.68
2022-11-16T03:45:49.010Z,8.70
2022-11-16T03:48:15.543Z,8.71
2022-11-16T03:50:43.638Z,8.71
2022-11-16T03:53:10.385Z,8.70
2022-11-16T03:55:37.217Z,8.68
2022-11-16T03:58:04.371Z,8.69
2022-11-16T04:00:31.083Z,8.72
2022-11-16T04:02:57.785Z,8.74
2022-11-16T04:05:45.755Z,8.75
2022-11-16T04:08:35.858Z,8.74
2022-11-16T04:11:21.285Z,8.73
2022-11-16T04:14:09.241Z,8.73
2022-11-16T04:16:57.157Z,8.66
2022-11-16T04:19:42.542Z,8.65
2022-11-16T04:22:37.411Z,8.65
2022-11-16T04:25:12.885Z,8.65
2022-11-16T04:27:58.412Z,8.62
2022-11-16T04:30:25.046Z,8.57
2022-11-16T04:33:10.261Z,8.55
2022-11-16T04:35:57.892Z,8.51
2022-11-16T04:38:26.668Z,8.44
2022-11-16T04:40:53.249Z,8.27
2022-11-16T04:43:19.768Z,8.06
2022-11-16T04:46:07.214Z,8.23
2022-11-16T04:48:36.998Z,8.21
2022-11-16T04:51:08.432Z,8.18
2022-11-16T04:53:37.397Z,8.02
2022-11-16T04:56:06.306Z,8.14
2022-11-16T04:58:33.168Z,8.20
2022-11-16T05:01:02.515Z,8.21
2022-11-16T05:03:31.477Z,8.28
2022-11-16T05:05:57.976Z,8.33
2022-11-16T05:08:28.086Z,8.37
2022-11-16T05:10:56.840Z,8.41
2022-11-16T05:13:23.343Z,8.48
2022-11-16T05:15:49.905Z,8.50
2022-11-16T05:18:18.664Z,8.51
2022-11-16T05:21:04.299Z,8.53
2022-11-16T05:23:49.370Z,8.56
2022-11-16T05:26:18.176Z,8.56
2022-11-16T05:28:44.703Z,8.58
2022-11-16T05:31:11.284Z,8.61
2022-11-16T05:33:37.788Z,8.59
2022-11-16T05:36:04.494Z,8.61
2022-11-16T05:38:35.774Z,8.57
2022-11-16T05:41:02.464Z,8.57
2022-11-16T05:43:31.972Z,8.57
2022-11-16T05:45:58.492Z,8.60
2022-11-16T05:48:27.485Z,8.61
2022-11-16T05:51:03.310Z,8.60
2022-11-16T05:53:29.791Z,8.56
2022-11-16T05:55:56.380Z,8.54
2022-11-16T05:58:22.945Z,8.53
2022-11-16T06:00:50.026Z,8.45
2022-11-16T06:03:16.805Z,8.32
2022-11-16T06:05:43.470Z,8.28
2022-11-16T06:10:58.741Z,8.09
2022-11-16T06:13:25.260Z,8.05
2022-11-16T06:15:51.760Z,8.04
2022-11-16T06:18:18.285Z,8.05
2022-11-16T06:20:44.840Z,8.00
2022-11-16T06:23:13.642Z,7.99
2022-11-16T06:25:45.767Z,8.01
2022-11-16T06:28:15.121Z,8.05
2022-11-16T06:30:44.038Z,8.11
2022-11-16T06:33:12.854Z,8.15
2022-11-16T06:35:39.356Z,8.15
2022-11-16T06:38:06.145Z,8.20
2022-11-16T06:40:33.174Z,8.23
2022-11-16T06:42:59.840Z,8.26
2022-11-16T06:45:27.178Z,8.27
2022-11-16T06:47:56.054Z,8.30
2022-11-16T06:50:25.199Z,8.34
2022-11-16T06:52:54.150Z,8.30
2022-11-16T06:55:20.672Z,8.33
2022-11-16T06:57:47.250Z,8.38
2022-11-16T07:00:17.316Z,8.41
2022-11-16T07:02:48.702Z,8.44
2022-11-16T07:05:15.209Z,8.46
2022-11-16T07:07:44.806Z,8.49
2022-11-16T07:10:14.570Z,8.51
2022-11-16T07:12:41.122Z,8.52
2022-11-16T07:15:08.167Z,8.54
2022-11-16T07:17:37.085Z,8.56
2022-11-16T07:20:03.897Z,8.58
2022-11-16T07:22:30.439Z,8.62
2022-11-16T07:24:56.978Z,8.61
2022-11-16T07:27:23.610Z,8.61
2022-11-16T07:29:50.112Z,8.63
2022-11-16T07:32:18.856Z,8.61
2022-11-16T07:34:45.363Z,8.65
2022-11-16T07:37:15.345Z,8.67
2022-11-16T07:39:45.609Z,8.73
2022-11-16T07:42:12.341Z,8.77
2022-11-16T07:44:43.470Z,8.81
2022-11-16T07:47:12.295Z,8.83
2022-11-16T07:49:41.071Z,8.80
2022-11-16T07:52:10.747Z,8.83
2022-11-16T07:54:39.348Z,8.88
2022-11-16T07:57:10.692Z,8.89
2022-11-16T07:59:37.256Z,8.96
2022-11-16T08:02:05.891Z,8.96
2022-11-16T08:04:32.532Z,8.97
2022-11-16T08:07:01.367Z,9.10
2022-11-16T08:09:30.378Z,9.14
2022-11-16T08:12:02.258Z,9.15
2022-11-16T08:14:28.827Z,9.20
2022-11-16T08:16:55.314Z,9.13
2022-11-16T08:19:24.163Z,9.23
2022-11-16T08:21:51.109Z,9.30
2022-11-16T08:24:17.913Z,9.29
2022-11-16T08:26:44.427Z,9.23
2022-11-16T08:29:11.614Z,9.11
2022-11-16T08:31:40.605Z,9.14
2022-11-16T08:34:07.243Z,9.22
2022-11-16T08:36:36.108Z,9.22
2022-11-16T08:39:05.151Z,9.26
2022-11-16T08:41:38.878Z,9.33
2022-11-16T08:44:05.384Z,9.37
2022-11-16T08:46:31.904Z,9.38
2022-11-16T08:49:01.035Z,9.46
2022-11-16T08:51:27.565Z,9.54
2022-11-16T08:53:58.084Z,9.51
2022-11-16T08:56:27.419Z,9.66
2022-11-16T08:58:58.434Z,9.69
2022-11-16T09:01:28.300Z,9.76
2022-11-16T09:03:55.797Z,9.81
2022-11-16T09:06:26.879Z,9.87
2022-11-16T09:08:53.765Z,9.73
2022-11-16T09:11:23.335Z,9.70
2022-11-16T09:13:53.893Z,9.69
2022-11-16T09:16:21.827Z,9.81
2022-11-16T09:18:54.558Z,9.81
2022-11-16T09:21:27.678Z,9.79
2022-11-16T09:23:55.667Z,9.87
2022-11-16T09:26:27.433Z,9.88
2022-11-16T09:28:59.453Z,9.89
2022-11-16T09:31:30.173Z,9.94
2022-11-16T09:34:00.499Z,9.97
2022-11-16T09:36:28.840Z,9.84
2022-11-16T09:41:48.415Z,9.91
2022-11-16T09:44:39.272Z,9.92
2022-11-16T09:47:17.104Z,9.86
2022-11-16T09:49:51.287Z,9.99
2022-11-16T09:52:36.978Z,10.06
2022-11-16T09:55:28.734Z,10.17
2022-11-16T09:58:02.098Z,10.45
2022-11-16T10:00:33.873Z,10.71
2022-11-16T10:03:11.390Z,10.69
2022-11-16T10:05:48.179Z,10.62
2022-11-16T10:08:33.352Z,10.62
2022-11-16T10:11:22.892Z,10.58
2022-11-16T10:14:14.502Z,10.61
2022-11-16T10:17:26.024Z,10.61
2022-11-16T10:20:30.443Z,10.88
2022-11-16T10:22:57.415Z,11.01
2022-11-16T10:25:29.745Z,11.03
2022-11-16T10:28:40.808Z,10.86
2022-11-16T10:31:16.668Z,10.51
2022-11-16T10:33:48.316Z,10.53
2022-11-16T10:36:16.081Z,10.52
2022-11-16T10:38:44.264Z,10.62
2022-11-16T10:41:32.489Z,10.78
2022-11-16T10:44:05.221Z,10.93
2022-11-16T10:46:36.154Z,11.13
2022-11-16T10:49:47.951Z,11.47
2022-11-16T10:52:19.328Z,11.74
2022-11-16T10:54:45.852Z,11.80
2022-11-16T10:57:14.600Z,11.61
2022-11-16T10:59:41.073Z,11.65
2022-11-16T11:02:35.592Z,11.42
2022-11-16T11:05:22.595Z,11.30
2022-11-16T11:08:01.598Z,11.49
2022-11-16T11:10:41.831Z,11.42
2022-11-16T11:13:11.353Z,11.64
2022-11-16T11:15:44.624Z,11.48
2022-11-16T11:18:17.397Z,11.61
2022-11-16T11:20:47.132Z,11.63
2022-11-16T11:23:23.690Z,11.53
2022-11-16T11:25:59.077Z,11.45
2022-11-16T11:28:31.853Z,11.46
2022-11-16T11:30:58.319Z,11.48
2022-11-16T11:33:40.094Z,11.53
2022-11-16T11:36:20.321Z,11.54
2022-11-16T11:39:30.315Z,11.58
2022-11-16T11:42:09.432Z,11.60
2022-11-16T11:45:05.651Z,11.53
2022-11-16T11:48:00.382Z,11.51
2022-11-16T11:50:27.171Z,11.60
2022-11-16T11:53:23.035Z,11.72
2022-11-16T11:55:57.793Z,11.64
2022-11-16T11:58:35.750Z,11.83
2022-11-16T12:01:20.811Z,11.81
2022-11-16T12:04:29.070Z,11.68
2022-11-16T12:07:19.896Z,11.95
2022-11-16T12:10:40.429Z,12.02
2022-11-16T12:13:28.100Z,11.96
2022-11-16T12:16:21.839Z,12.10
2022-11-16T12:19:27.186Z,12.24
2022-11-16T12:22:15.227Z,12.44
2022-11-16T12:25:15.110Z,12.62
2022-11-16T12:28:04.053Z,12.59
2022-11-16T12:30:35.493Z,12.63
2022-11-16T12:33:23.509Z,12.59
2022-11-16T12:36:26.414Z,12.69
2022-11-16T12:39:18.612Z,12.70
2022-11-16T12:42:01.759Z,12.61
2022-11-16T12:44:50.808Z,12.65
2022-11-16T12:47:51.003Z,12.84
2022-11-16T12:50:38.943Z,12.82
2022-11-16T12:53:08.492Z,12.94
2022-11-16T12:55:52.093Z,12.60
2022-11-16T12:58:31.517Z,12.71
2022-11-16T13:01:23.267Z,12.82
2022-11-16T13:03:55.011Z,12.81
2022-11-16T13:06:28.783Z,12.93
2022-11-16T13:09:12.898Z,12.92
2022-11-16T13:11:46.000Z,13.00
2022-11-16T13:14:40.340Z,12.82
2022-11-16T13:17:07.885Z,12.91
2022-11-16T13:19:40.395Z,12.68
2022-11-16T13:22:23.781Z,12.64
2022-11-16T13:25:04.450Z,12.82
2022-11-16T13:27:44.327Z,12.68
2022-11-16T13:30:21.483Z,12.75
2022-11-16T13:33:15.938Z,12.79
2022-11-16T13:35:44.945Z,12.77
2022-11-16T13:38:15.763Z,12.81
2022-11-16T13:40:42.410Z,12.87
2022-11-16T13:43:11.882Z,12.79
2022-11-16T13:45:52.451Z,12.71
2022-11-16T13:48:25.790Z,12.66
2022-11-16T13:50:57.747Z,12.62
2022-11-16T13:54:25.035Z,12.67
2022-11-16T13:56:28.925Z,12.77
2022-11-16T13:59:03.734Z,12.71
2022-11-16T14:01:57.644Z,12.69
2022-11-16T14:04:58.016Z,12.65
2022-11-16T14:07:29.277Z,12.55
2022-11-16T14:10:00.366Z,12.53
2022-11-16T14:12:41.569Z,12.44
2022-11-16T14:15:15.557Z,12.48
2022-11-16T14:18:00.457Z,12.39
2022-11-16T14:20:39.156Z,12.38
2022-11-16T14:23:05.668Z,12.34
2022-11-16T14:25:47.087Z,12.32
2022-11-16T14:28:27.997Z,12.22
2022-11-16T14:31:20.358Z,12.20
2022-11-16T14:33:54.857Z,12.27
2022-11-16T14:36:46.172Z,12.19
2022-11-16T14:39:30.946Z,12.19
2022-11-16T14:42:03.396Z,12.12
2022-11-16T14:44:35.429Z,12.03
2022-11-16T14:47:03.388Z,11.92
2022-11-16T14:49:33.509Z,11.76
2022-11-16T14:52:06.875Z,11.65
2022-11-16T14:54:52.523Z,11.56
2022-11-16T14:57:22.402Z,11.49
2022-11-16T15:00:13.592Z,11.40
2022-11-16T15:02:40.808Z,11.31
2022-11-16T15:05:14.327Z,11.26
2022-11-16T15:07:46.198Z,11.00
2022-11-16T15:10:21.826Z,11.06
2022-11-16T15:12:53.107Z,10.96
2022-11-16T15:15:26.684Z,10.99
2022-11-16T15:18:01.365Z,10.97
2022-11-16T15:20:30.596Z,10.94
2022-11-16T15:22:58.945Z,10.87
2022-11-16T15:25:41.425Z,10.80
2022-11-16T15:28:21.017Z,10.74
2022-11-16T15:31:19.474Z,10.70
2022-11-16T15:33:46.701Z,10.69
2022-11-16T15:36:31.240Z,10.58
2022-11-16T15:38:59.617Z,10.54
2022-11-16T15:41:29.301Z,10.45
2022-11-16T15:44:16.436Z,10.36
2022-11-16T15:46:47.084Z,10.33
2022-11-16T15:49:20.030Z,10.23
2022-11-16T15:51:49.512Z,10.12
2022-11-16T15:54:30.372Z,10.16
2022-11-16T15:57:09.496Z,10.12
2022-11-16T15:59:38.298Z,10.05
2022-11-16T16:02:05.285Z,9.96
2022-11-16T16:04:34.087Z,9.85
2022-11-16T16:07:00.915Z,9.81
2022-11-16T16:09:27.614Z,9.72
2022-11-16T16:12:14.085Z,9.73
2022-11-16T16:14:40.672Z,9.73
2022-11-16T16:17:10.207Z,9.53
2022-11-16T16:19:53.115Z,9.36
2022-11-16T16:22:34.816Z,9.54
2022-11-16T16:25:02.060Z,9.51
2022-11-16T16:27:31.019Z,9.66
2022-11-16T16:30:05.894Z,9.74
2022-11-16T16:32:38.430Z,9.61
2022-11-16T16:35:07.718Z,9.43
2022-11-16T16:37:38.873Z,9.45
2022-11-16T16:40:08.987Z,9.48
2022-11-16T16:42:35.630Z,9.46
2022-11-16T16:45:04.895Z,9.38
2022-11-16T16:47:33.859Z,9.14
2022-11-16T16:50:02.640Z,9.18
2022-11-16T16:52:29.287Z,9.29
2022-11-16T16:54:55.950Z,9.34
2022-11-16T16:57:22.645Z,9.43
2022-11-16T16:59:52.000Z,9.49
2022-11-16T17:02:18.911Z,9.42
2022-11-16T17:04:47.136Z,9.27
2022-11-16T17:07:15.699Z,9.12
2022-11-16T17:09:45.937Z,9.11
2022-11-16T17:12:13.211Z,9.19
2022-11-16T17:14:42.885Z,9.18
2022-11-16T17:17:12.801Z,8.90
2022-11-16T17:19:41.921Z,8.92
2022-11-16T17:22:11.991Z,8.98
2022-11-16T17:24:39.151Z,8.93
2022-11-16T17:27:06.808Z,8.75
2022-11-16T17:29:36.757Z,8.60
2022-11-16T17:32:04.340Z,8.71
2022-11-16T17:34:32.356Z,8.66
2022-11-16T17:36:59.795Z,8.57
2022-11-16T17:39:29.777Z,8.64
2022-11-16T17:41:59.984Z,8.55
2022-11-16T17:44:30.763Z,8.43
2022-11-16T17:47:00.845Z,8.36
2022-11-16T17:49:28.162Z,8.42
2022-11-16T17:51:57.971Z,8.38
2022-11-16T17:54:27.382Z,8.46
2022-11-16T17:56:55.232Z,8.48
2022-11-16T17:59:27.980Z,8.50
2022-11-16T18:01:58.734Z,8.41
2022-11-16T18:04:28.169Z,8.17
2022-11-16T18:06:57.168Z,8.29
2022-11-16T18:09:25.936Z,8.32
2022-11-16T18:11:56.985Z,8.31
2022-11-16T18:14:28.817Z,8.24
2022-11-16T18:16:57.995Z,8.11
2022-11-16T18:19:26.756Z,8.13
2022-11-16T18:21:53.298Z,7.99
2022-11-16T18:24:24.598Z,8.04
2022-11-16T18:26:56.208Z,8.07
2022-11-16T18:29:22.771Z,8.07
2022-11-16T18:31:49.330Z,7.83
2022-11-16T18:34:19.445Z,7.29
2022-11-16T18:36:48.896Z,7.56
2022-11-16T18:39:20.444Z,7.60
2022-11-16T18:41:51.649Z,7.72
2022-11-16T18:44:23.133Z,7.75
2022-11-16T18:46:49.718Z,7.71
2022-11-16T18:49:16.434Z,7.71
2022-11-16T18:51:45.448Z,7.67
2022-11-16T18:54:14.286Z,7.69
2022-11-16T18:56:40.786Z,7.71
2022-11-16T18:59:10.370Z,7.74
2022-11-16T19:01:37.004Z,7.68
2022-11-16T19:04:03.795Z,7.59
2022-11-16T19:06:31.978Z,7.59
2022-11-16T19:09:01.138Z,7.53
2022-11-16T19:11:30.192Z,7.46
2022-11-16T19:14:04.302Z,7.44
2022-11-16T19:16:33.776Z,7.42
2022-11-16T19:19:03.583Z,7.50
2022-11-16T19:21:30.242Z,7.45
2022-11-16T19:24:00.039Z,7.28
2022-11-16T19:26:28.346Z,7.42
2022-11-16T19:28:55.297Z,7.33
2022-11-16T19:31:28.665Z,7.20
2022-11-16T19:34:06.108Z,7.25
2022-11-16T19:36:34.949Z,7.31
2022-11-16T19:39:02.250Z,7.28
2022-11-16T19:41:31.496Z,7.25
2022-11-16T19:44:03.334Z,7.27
2022-11-16T19:46:33.367Z,7.04
2022-11-16T19:49:02.889Z,6.62
2022-11-16T19:51:35.235Z,6.83
2022-11-16T19:54:06.605Z,6.66
2022-11-16T19:56:33.246Z,6.79
2022-11-16T19:59:02.308Z,7.11
2022-11-16T20:01:29.542Z,7.20
2022-11-16T20:04:06.164Z,7.10
2022-11-16T20:06:35.121Z,6.93
2022-11-16T20:09:11.267Z,6.87
2022-11-16T20:11:41.597Z,6.93
2022-11-16T20:14:12.086Z,6.94
2022-11-16T20:16:43.383Z,7.00
2022-11-16T20:19:10.728Z,7.13
2022-11-16T20:21:39.611Z,7.18
2022-11-16T20:24:09.014Z,7.18
2022-11-16T20:26:39.418Z,7.16
2022-11-16T20:29:08.303Z,7.19
2022-11-16T20:31:34.961Z,7.19
2022-11-16T20:34:05.827Z,7.09
2022-11-16T20:36:33.543Z,7.04
2022-11-16T20:39:03.085Z,6.76
2022-11-16T20:41:31.166Z,6.74
2022-11-16T20:43:59.512Z,6.85
2022-11-16T20:46:28.299Z,6.87
2022-11-16T20:48:57.153Z,6.99
2022-11-16T20:51:29.530Z,7.04
2022-11-16T20:53:56.426Z,6.95
2022-11-16T20:56:25.882Z,6.87
2022-11-16T20:58:52.654Z,6.91
2022-11-16T21:01:20.767Z,7.03
2022-11-16T21:03:49.809Z,7.10
2022-11-16T21:06:18.638Z,7.11
2022-11-16T21:08:45.248Z,7.03
2022-11-16T21:11:17.078Z,7.05
2022-11-16T21:14:06.617Z,6.87
2022-11-16T21:16:34.189Z,6.75
2022-11-16T21:19:01.691Z,6.93
2022-11-16T21:21:30.678Z,7.05
2022-11-16T21:23:57.313Z,7.08
2022-11-16T21:26:32.287Z,7.13
2022-11-16T21:29:00.201Z,7.15
2022-11-16T21:31:29.948Z,7.19
2022-11-16T21:33:57.552Z,7.21
2022-11-16T21:36:26.713Z,7.21
2022-11-16T21:38:55.050Z,7.20
2022-11-16T21:41:24.731Z,7.23
2022-11-16T21:43:51.381Z,7.19
2022-11-16T21:46:20.204Z,7.14
2022-11-16T21:48:52.915Z,7.11
2022-11-16T21:51:21.531Z,7.21
2022-11-16T21:53:48.890Z,7.26
2022-11-16T21:56:18.693Z,7.26
2022-11-16T21:58:45.812Z,7.22
2022-11-16T22:01:13.854Z,7.23
2022-11-16T22:03:45.251Z,7.24
2022-11-16T22:06:38.449Z,7.28
2022-11-16T22:09:05.148Z,7.28
2022-11-16T22:11:33.864Z,7.27
2022-11-16T22:14:00.464Z,7.32
2022-11-16T22:16:31.831Z,7.32
2022-11-16T22:18:58.463Z,7.12
2022-11-16T22:21:25.092Z,6.99
2022-11-16T22:23:51.704Z,7.15
2022-11-16T22:26:18.622Z,7.12
2022-11-16T22:28:47.665Z,7.26
2022-11-16T22:31:16.483Z,7.29
2022-11-16T22:33:43.110Z,7.31
2022-11-16T22:36:16.053Z,7.33
2022-11-16T22:38:42.603Z,7.25
2022-11-16T22:41:11.676Z,7.33
2022-11-16T22:43:39.123Z,7.22
2022-11-16T22:46:09.581Z,7.29
2022-11-16T22:48:38.507Z,7.35
2022-11-16T22:51:08.969Z,7.39
2022-11-16T22:53:42.807Z,7.41
2022-11-16T22:56:10.879Z,7.42
2022-11-16T22:58:38.822Z,7.42
2022-11-16T23:01:07.679Z,7.42
2022-11-16T23:03:34.767Z,7.44
2022-11-16T23:06:05.697Z,7.32
2022-11-16T23:08:35.611Z,7.35
2022-11-16T23:11:20.693Z,7.32
2022-11-16T23:14:08.637Z,7.44
2022-11-16T23:16:37.951Z,7.50
2022-11-16T23:19:23.720Z,7.28
2022-11-16T23:22:11.631Z,7.32
2022-11-16T23:24:56.877Z,7.31
2022-11-16T23:27:31.136Z,7.31
2022-11-16T23:30:11.876Z,7.18
2022-11-16T23:32:39.282Z,7.22
2022-11-16T23:35:09.810Z,7.24
2022-11-16T23:38:01.601Z,7.04
2022-11-16T23:40:32.842Z,7.07
2022-11-16T23:43:18.684Z,7.15
2022-11-16T23:45:45.490Z,7.28
2022-11-16T23:48:16.646Z,7.34
2022-11-16T23:50:46.448Z,7.29
2022-11-16T23:53:15.506Z,7.34
2022-11-16T23:55:42.210Z,7.42
2022-11-16T23:58:14.532Z,7.42
